Time;durP1;ratioP1;P1;durP2;ratioP2;P2;SDS_P1;SDS_P2;PMS_P1;PMS_P2;Temp;Humidity;BMP_temperature;BMP_pressure;BME280_temperature;BME280_humidity;BME280_pressure;Samples;Min_cycle;Max_cycle;Signal;HPM_P1;HPM_P2
2024/03/10 00:00:39;;;;;;;1.73;1.10;;;6.80;99.90;;;;;;5110462;27;20102;-77
2024/03/10 00:03:06;;;;;;;1.23;0.97;;;6.90;99.90;;;;;;5109380;27;20023;-77
2024/03/10 00:05:32;;;;;;;1.60;1.10;;;7.00;99.90;;;;;;5109275;27;20020;-76
2024/03/10 00:07:58;;;;;;;2.03;0.93;;;7.10;99.90;;;;;;5112985;28;20126;-76
2024/03/10 00:10:24;;;;;;;1.40;1.00;;;7.10;99.90;;;;;;5109068;27;20531;-76
2024/03/10 00:12:49;;;;;;;1.47;1.10;;;7.20;99.90;;;;;;5111808;28;20024;-77
2024/03/10 00:15:15;;;;;;;1.70;1.10;;;7.30;99.90;;;;;;5109100;27;20708;-76
2024/03/10 00:17:41;;;;;;;1.67;1.00;;;7.30;99.90;;;;;;5112416;28;20034;-76
2024/03/10 00:20:08;;;;;;;3.70;0.90;;;7.30;99.90;;;;;;5109022;27;20111;-76
2024/03/10 00:22:36;;;;;;;1.23;1.00;;;7.40;99.90;;;;;;5116825;27;20011;-76
2024/03/10 00:25:03;;;;;;;1.23;1.00;;;7.40;99.90;;;;;;5109082;27;20528;-76
2024/03/10 00:27:28;;;;;;;1.40;1.00;;;7.40;99.90;;;;;;5110541;28;20039;-76
2024/03/10 00:29:54;;;;;;;2.23;1.10;;;7.40;99.90;;;;;;5112216;28;20380;-76
2024/03/10 00:32:19;;;;;;;4.20;1.23;;;7.50;99.90;;;;;;5109006;28;20480;-77
2024/03/10 00:34:45;;;;;;;2.33;1.00;;;7.50;99.90;;;;;;5108395;28;20020;-76
2024/03/10 00:37:11;;;;;;;1.57;0.97;;;7.50;99.90;;;;;;5108805;28;20015;-76
2024/03/10 00:39:36;;;;;;;1.60;0.90;;;7.60;99.90;;;;;;5110467;27;20111;-76
2024/03/10 00:42:02;;;;;;;1.53;0.90;;;7.60;99.90;;;;;;5105732;27;20024;-76
2024/03/10 00:44:30;;;;;;;2.87;1.60;;;7.60;99.90;;;;;;5110534;28;20169;-76
2024/03/10 00:46:57;;;;;;;1.33;1.00;;;7.60;99.90;;;;;;5110769;28;20027;-77
2024/03/10 00:49:22;;;;;;;3.13;1.13;;;7.60;99.90;;;;;;5109002;27;20016;-77
2024/03/10 00:51:48;;;;;;;1.57;0.93;;;7.70;99.90;;;;;;5108763;28;20060;-76
2024/03/10 00:54:14;;;;;;;3.70;1.13;;;7.70;99.90;;;;;;5108556;28;20023;-76
2024/03/10 00:56:39;;;;;;;1.07;0.90;;;7.70;99.90;;;;;;5092325;28;20031;-76
2024/03/10 00:59:05;;;;;;;1.40;1.07;;;7.70;99.90;;;;;;5110308;28;20047;-77
2024/03/10 01:01:30;;;;;;;2.90;1.00;;;7.80;99.90;;;;;;5110257;27;20020;-76
2024/03/10 01:03:56;;;;;;;1.40;0.90;;;7.80;99.90;;;;;;5107381;28;20036;-76
2024/03/10 01:06:23;;;;;;;1.90;1.20;;;7.80;99.90;;;;;;5107692;28;20030;-76
2024/03/10 01:08:49;;;;;;;2.13;1.43;;;7.80;99.90;;;;;;5108515;28;20102;-76
2024/03/10 01:11:15;;;;;;;1.83;1.50;;;7.80;99.90;;;;;;5111123;28;20038;-76
2024/03/10 01:13:40;;;;;;;1.43;1.07;;;7.80;99.90;;;;;;5110257;28;20024;-76
2024/03/10 01:16:06;;;;;;;1.40;1.00;;;7.80;99.90;;;;;;5107540;28;20468;-76
2024/03/10 01:18:31;;;;;;;2.53;1.10;;;7.90;99.90;;;;;;5107795;28;20043;-76
2024/03/10 01:20:57;;;;;;;2.83;0.80;;;7.90;99.90;;;;;;5108068;28;20084;-76
2024/03/10 01:23:23;;;;;;;2.90;1.83;;;7.90;99.90;;;;;;5114014;28;21710;-76
2024/03/10 01:25:49;;;;;;;2.33;1.20;;;7.80;99.90;;;;;;5110577;28;20497;-77
2024/03/10 01:28:14;;;;;;;1.40;1.00;;;7.80;99.90;;;;;;5107562;28;20020;-76
2024/03/10 01:30:40;;;;;;;2.07;1.30;;;7.80;99.90;;;;;;5107939;28;20024;-76
2024/03/10 01:33:06;;;;;;;2.10;1.20;;;7.80;99.90;;;;;;5108485;28;20134;-76
2024/03/10 01:35:32;;;;;;;2.40;1.20;;;7.80;99.90;;;;;;5111514;28;20073;-76
2024/03/10 01:37:57;;;;;;;1.73;1.20;;;7.80;99.90;;;;;;5107642;28;20023;-76
2024/03/10 01:40:23;;;;;;;2.00;1.13;;;7.80;99.90;;;;;;5107799;28;20023;-76
2024/03/10 01:42:55;;;;;;;2.63;1.20;;;7.80;99.90;;;;;;5107783;28;20471;-76
2024/03/10 01:45:21;;;;;;;1.50;1.03;;;7.80;99.90;;;;;;5110941;28;20031;-76
2024/03/10 01:47:47;;;;;;;3.77;1.30;;;7.80;99.90;;;;;;5108076;28;20024;-76
2024/03/10 01:50:13;;;;;;;2.33;1.27;;;7.80;99.90;;;;;;5108854;28;20103;-76
2024/03/10 01:52:40;;;;;;;2.70;1.20;;;7.70;99.90;;;;;;5108892;28;20103;-76
2024/03/10 01:55:07;;;;;;;2.30;1.10;;;7.70;99.90;;;;;;5115118;27;20101;-76
2024/03/10 01:57:34;;;;;;;2.17;1.10;;;7.70;99.90;;;;;;5111946;28;20119;-76
2024/03/10 02:00:02;;;;;;;2.30;1.10;;;7.70;99.90;;;;;;5115638;28;20455;-76
2024/03/10 02:02:28;;;;;;;3.20;1.30;;;7.70;99.90;;;;;;5108661;28;20043;-76
2024/03/10 02:04:53;;;;;;;2.13;1.20;;;7.70;99.90;;;;;;5107029;28;20545;-76
2024/03/10 02:07:19;;;;;;;3.10;1.93;;;7.70;99.90;;;;;;5107197;28;20028;-76
2024/03/10 02:09:45;;;;;;;2.27;1.10;;;7.70;99.90;;;;;;5111076;28;20072;-76
2024/03/10 02:12:11;;;;;;;1.53;0.90;;;7.70;99.90;;;;;;5112886;27;20024;-76
2024/03/10 02:14:40;;;;;;;1.37;1.00;;;7.70;99.90;;;;;;5110224;27;20479;-76
2024/03/10 02:17:10;;;;;;;1.20;1.00;;;7.70;99.90;;;;;;5111306;27;20020;-76
2024/03/10 02:19:36;;;;;;;1.53;1.00;;;7.70;99.90;;;;;;5110717;27;20027;-76
2024/03/10 02:22:02;;;;;;;1.50;1.00;;;7.70;99.90;;;;;;5114561;28;20062;-76
2024/03/10 02:24:33;;;;;;;1.50;1.10;;;7.70;99.90;;;;;;5110443;28;20030;-76
2024/03/10 02:26:58;;;;;;;1.47;0.93;;;7.60;99.90;;;;;;5110754;27;20011;-77
2024/03/10 02:29:26;;;;;;;3.53;1.00;;;7.60;99.90;;;;;;5116771;27;20015;-76
2024/03/10 02:48:20;;;;;;;1.03;0.80;;;7.40;99.90;;;;;;5110398;27;20581;-76
2024/03/10 02:50:45;;;;;;;1.53;0.90;;;7.40;99.90;;;;;;5110979;27;20169;-76
2024/03/10 02:53:11;;;;;;;0.83;0.80;;;7.40;99.90;;;;;;5113330;28;20047;-76
2024/03/10 02:55:37;;;;;;;2.03;0.90;;;7.40;99.90;;;;;;5109462;27;20019;-77
2024/03/10 02:58:04;;;;;;;1.67;1.13;;;7.40;99.90;;;;;;5110289;27;20027;-76
2024/03/10 03:00:31;;;;;;;1.37;0.87;;;7.40;99.90;;;;;;5111658;27;20027;-77
2024/03/10 03:02:57;;;;;;;1.27;0.90;;;7.40;99.90;;;;;;5112657;28;20034;-76
2024/03/10 03:05:23;;;;;;;1.23;0.90;;;7.50;99.90;;;;;;5110728;28;20072;-76
2024/03/10 03:07:49;;;;;;;1.37;1.00;;;7.50;99.90;;;;;;5110721;27;20019;-77
2024/03/10 03:10:15;;;;;;;3.93;1.30;;;7.40;99.90;;;;;;5114319;27;20028;-76
2024/03/10 03:12:42;;;;;;;2.10;0.90;;;7.50;99.90;;;;;;5109744;27;20031;-76
2024/03/10 03:15:09;;;;;;;1.50;1.00;;;7.40;99.90;;;;;;5109401;28;20103;-76
2024/03/10 03:17:35;;;;;;;4.67;1.10;;;7.40;99.90;;;;;;5109879;27;20024;-76
2024/03/10 03:20:07;;;;;;;1.00;0.80;;;7.40;99.90;;;;;;5112470;28;20023;-76
2024/03/10 03:22:33;;;;;;;1.37;0.93;;;7.40;99.90;;;;;;5110648;27;20104;-76
2024/03/10 03:24:58;;;;;;;1.57;1.10;;;7.40;99.90;;;;;;5108844;28;20024;-76
2024/03/10 03:27:25;;;;;;;1.43;0.83;;;7.30;99.90;;;;;;5109474;27;20072;-76
2024/03/10 03:29:50;;;;;;;1.67;0.90;;;7.30;99.90;;;;;;5112046;27;20036;-76
2024/03/10 03:32:16;;;;;;;3.10;1.10;;;7.30;99.90;;;;;;5109658;28;20999;-76
2024/03/10 03:34:41;;;;;;;2.03;1.13;;;7.30;99.90;;;;;;5112795;28;20027;-76
2024/03/10 03:37:09;;;;;;;2.53;1.03;;;7.20;99.90;;;;;;5109360;27;20023;-76
2024/03/10 03:39:35;;;;;;;2.60;0.90;;;7.20;99.90;;;;;;5109274;27;20099;-76
2024/03/10 03:42:00;;;;;;;1.77;1.10;;;7.10;99.90;;;;;;5109286;28;20106;-76
2024/03/10 03:44:26;;;;;;;2.40;0.90;;;7.10;99.90;;;;;;5108991;27;20080;-76
2024/03/10 03:46:51;;;;;;;2.80;1.03;;;7.00;99.90;;;;;;5114668;27;20087;-76
2024/03/10 03:49:17;;;;;;;1.63;1.20;;;7.00;99.90;;;;;;5112044;27;20031;-76
2024/03/10 03:51:43;;;;;;;4.53;1.00;;;6.90;99.90;;;;;;5109137;28;20364;-75
2024/03/10 03:54:09;;;;;;;2.40;1.03;;;6.90;99.90;;;;;;5108896;28;20036;-76
2024/03/10 03:56:35;;;;;;;2.73;1.30;;;6.80;99.90;;;;;;5112226;28;20080;-76
2024/03/10 03:59:01;;;;;;;1.60;0.90;;;6.80;99.90;;;;;;5110081;27;20019;-76
2024/03/10 04:01:26;;;;;;;2.33;1.00;;;6.80;99.90;;;;;;5108779;27;20020;-76
2024/03/10 04:03:51;;;;;;;1.27;0.90;;;6.70;99.90;;;;;;5109289;28;20030;-76
2024/03/10 04:06:17;;;;;;;1.87;1.03;;;6.60;99.90;;;;;;5111911;28;20030;-76
2024/03/10 04:08:43;;;;;;;3.77;1.20;;;6.60;99.90;;;;;;5110096;27;20480;-76
2024/03/10 04:11:08;;;;;;;0.93;0.80;;;6.50;99.90;;;;;;5111228;27;20029;-76
2024/03/10 04:13:34;;;;;;;2.03;1.17;;;6.40;99.90;;;;;;5108639;27;20015;-76
2024/03/10 04:15:59;;;;;;;2.37;1.17;;;6.40;99.90;;;;;;5108808;27;20059;-76
2024/03/10 04:18:26;;;;;;;1.80;0.90;;;6.30;99.90;;;;;;5110994;28;20067;-76
2024/03/10 04:20:51;;;;;;;3.43;1.10;;;6.30;99.90;;;;;;5110013;27;20042;-76
2024/03/10 04:23:17;;;;;;;3.23;0.93;;;6.20;99.90;;;;;;5109057;27;20027;-76
2024/03/10 04:25:42;;;;;;;2.67;0.97;;;6.10;99.90;;;;;;5108407;27;20031;-76
2024/03/10 04:28:08;;;;;;;2.40;1.00;;;6.10;99.90;;;;;;5116766;27;20387;-76
2024/03/10 04:30:34;;;;;;;2.37;1.07;;;6.00;99.90;;;;;;5104975;27;20024;-76
2024/03/10 04:33:00;;;;;;;1.30;1.00;;;6.00;99.90;;;;;;5111027;28;20039;-76
2024/03/10 04:35:25;;;;;;;1.47;1.13;;;5.90;99.90;;;;;;5108987;27;20035;-76
2024/03/10 04:37:53;;;;;;;3.83;1.00;;;5.80;99.90;;;;;;5108769;28;20016;-76
2024/03/10 04:40:19;;;;;;;3.70;1.00;;;5.80;99.90;;;;;;5108359;27;20156;-77
2024/03/10 04:42:44;;;;;;;2.53;0.90;;;5.70;99.90;;;;;;5110032;28;20043;-76
2024/03/10 04:45:13;;;;;;;3.07;1.07;;;5.60;99.90;;;;;;5110225;28;20114;-76
2024/03/10 04:47:38;;;;;;;3.43;1.20;;;5.60;99.90;;;;;;5108691;27;20020;-76
2024/03/10 04:50:05;;;;;;;2.47;1.50;;;5.50;99.90;;;;;;5108449;27;20022;-76
2024/03/10 04:52:30;;;;;;;3.33;1.70;;;5.50;99.90;;;;;;5108046;28;20020;-76
2024/03/10 04:54:56;;;;;;;3.97;1.83;;;5.50;99.90;;;;;;5107635;27;20461;-76
2024/03/10 04:57:22;;;;;;;1.97;1.30;;;5.40;99.90;;;;;;5108166;28;20032;-76
2024/03/10 04:59:48;;;;;;;3.40;2.03;;;5.40;99.90;;;;;;5112042;28;20681;-76
2024/03/10 05:02:14;;;;;;;2.57;1.13;;;5.40;99.90;;;;;;5109427;28;20027;-76
2024/03/10 05:04:39;;;;;;;2.40;1.20;;;5.30;99.90;;;;;;5107620;27;20043;-76
2024/03/10 05:07:05;;;;;;;2.67;1.00;;;5.30;99.90;;;;;;5109882;28;20031;-76
2024/03/10 05:09:31;;;;;;;3.37;1.67;;;5.30;99.90;;;;;;5111898;28;20119;-76
2024/03/10 05:11:56;;;;;;;9.10;5.53;;;5.30;99.90;;;;;;5111077;28;20073;-76
2024/03/10 05:14:22;;;;;;;7.30;3.30;;;5.30;99.90;;;;;;5111465;28;20020;-77
2024/03/10 05:16:48;;;;;;;3.73;2.07;;;5.30;99.90;;;;;;5107553;28;20472;-76
2024/03/10 05:19:13;;;;;;;3.17;2.43;;;5.40;99.90;;;;;;5107847;28;20039;-76
2024/03/10 05:21:39;;;;;;;3.10;2.50;;;5.40;99.90;;;;;;5111038;28;20033;-76
2024/03/10 05:24:06;;;;;;;2.70;2.20;;;5.40;99.90;;;;;;5107144;28;20028;-76
2024/03/10 05:26:32;;;;;;;3.10;2.23;;;5.40;99.90;;;;;;5105695;28;20475;-76
2024/03/10 05:28:57;;;;;;;2.07;1.47;;;5.40;99.90;;;;;;5106566;28;20079;-76
2024/03/10 05:31:27;;;;;;;3.27;1.60;;;5.40;99.90;;;;;;5106968;28;20012;-76
2024/03/10 05:33:53;;;;;;;3.27;1.80;;;5.40;99.90;;;;;;5107729;28;20058;-76
2024/03/10 05:36:18;;;;;;;3.37;1.90;;;5.30;99.90;;;;;;5111232;28;20043;-76
2024/03/10 05:38:43;;;;;;;5.73;2.20;;;5.30;99.90;;;;;;5107052;28;20024;-76
2024/03/10 05:41:09;;;;;;;3.20;1.90;;;5.30;99.90;;;;;;5107797;28;20035;-77
2024/03/10 05:43:34;;;;;;;7.93;4.80;;;5.20;99.90;;;;;;5106852;28;20485;-76
2024/03/10 05:46:00;;;;;;;3.73;2.00;;;5.20;99.90;;;;;;5107041;28;20080;-76
2024/03/10 05:48:26;;;;;;;3.80;1.83;;;5.10;99.90;;;;;;5111845;27;20027;-77
2024/03/10 05:50:52;;;;;;;3.37;1.70;;;5.10;99.90;;;;;;5111801;27;20491;-76
2024/03/10 05:53:18;;;;;;;2.63;1.40;;;5.10;99.90;;;;;;5111233;27;20031;-76
2024/03/10 05:55:43;;;;;;;2.90;1.83;;;5.00;99.90;;;;;;5111623;27;20022;-76
2024/03/10 05:58:09;;;;;;;2.47;1.40;;;5.00;99.90;;;;;;5111628;27;20036;-76
2024/03/10 06:00:36;;;;;;;5.07;1.90;;;5.00;99.90;;;;;;5113145;27;20014;-76
2024/03/10 06:03:02;;;;;;;5.13;2.10;;;4.90;99.90;;;;;;5110022;27;20020;-76
2024/03/10 06:05:27;;;;;;;4.53;3.10;;;4.80;99.90;;;;;;5110461;27;20379;-76
2024/03/10 06:07:53;;;;;;;4.93;2.70;;;4.80;99.90;;;;;;5110346;27;20030;-76
2024/03/10 06:10:21;;;;;;;4.10;1.80;;;4.80;99.90;;;;;;5110729;27;20500;-76
2024/03/10 06:12:46;;;;;;;2.43;1.60;;;4.80;99.90;;;;;;5111725;27;20031;-76
2024/03/10 06:15:16;;;;;;;2.43;1.60;;;4.70;99.90;;;;;;5111932;27;20027;-76
2024/03/10 06:17:50;;;;;;;4.30;1.70;;;4.70;99.90;;;;;;5109854;27;20016;-76
2024/03/10 06:25:44;;;;;;;3.90;1.90;;;4.70;99.90;;;;;;5108225;27;20026;-75
2024/03/10 06:28:10;;;;;;;7.23;2.23;;;4.70;99.90;;;;;;5110912;27;20032;-75
2024/03/10 06:30:35;;;;;;;3.70;2.30;;;4.80;99.90;;;;;;5114021;28;20387;-74
2024/03/10 06:33:01;;;;;;;2.77;1.60;;;4.80;99.90;;;;;;5109625;27;20478;-76
2024/03/10 06:35:27;;;;;;;3.60;1.90;;;4.80;99.90;;;;;;5109244;27;20027;-75
2024/03/10 06:37:52;;;;;;;3.70;2.60;;;4.80;99.90;;;;;;5112466;28;20024;-76
2024/03/10 06:40:18;;;;;;;8.43;2.57;;;4.90;99.90;;;;;;5110484;27;20022;-74
2024/03/10 06:42:46;;;;;;;3.03;2.13;;;4.90;99.90;;;;;;5124270;27;20514;-75
2024/03/10 06:45:13;;;;;;;4.83;3.20;;;4.90;99.90;;;;;;5114100;27;20051;-76
2024/03/10 06:47:38;;;;;;;6.60;2.93;;;4.90;99.90;;;;;;5124390;27;20056;-81
2024/03/10 06:50:05;;;;;;;5.60;2.60;;;4.90;99.90;;;;;;5128278;27;20091;-81
2024/03/10 06:52:31;;;;;;;6.83;2.70;;;5.00;99.90;;;;;;5125576;27;20031;-78
2024/03/10 06:54:57;;;;;;;5.03;2.97;;;5.00;99.90;;;;;;5133823;27;20019;-78
2024/03/10 06:57:23;;;;;;;5.33;3.60;;;5.00;99.90;;;;;;5132988;27;20065;-77
2024/03/10 06:59:48;;;;;;;4.83;2.87;;;5.10;99.90;;;;;;5120998;27;20047;-77
2024/03/10 07:02:15;;;;;;;4.13;2.60;;;5.20;99.90;;;;;;5125961;27;20125;-86
2024/03/10 07:04:44;;;;;;;3.30;2.30;;;5.20;99.90;;;;;;5119288;27;20091;-80
2024/03/10 07:07:09;;;;;;;6.90;2.70;;;5.20;99.90;;;;;;5118058;27;20027;-81
2024/03/10 07:09:35;;;;;;;4.50;3.10;;;5.20;99.90;;;;;;5118378;27;20104;-82
2024/03/10 07:12:03;;;;;;;4.10;2.70;;;5.20;99.90;;;;;;5118244;27;20441;-77
2024/03/10 07:14:29;;;;;;;5.30;2.80;;;5.20;99.90;;;;;;5118742;27;20030;-77
2024/03/10 07:16:54;;;;;;;3.10;2.23;;;5.20;99.90;;;;;;5123674;27;20154;-77
2024/03/10 07:19:20;;;;;;;4.00;2.20;;;5.30;99.90;;;;;;5118135;27;20035;-75
2024/03/10 07:21:45;;;;;;;4.33;2.57;;;5.30;99.90;;;;;;5118697;27;20477;-76
2024/03/10 07:24:11;;;;;;;3.10;2.47;;;5.40;99.90;;;;;;5112376;27;20042;-75
2024/03/10 07:26:37;;;;;;;4.80;3.00;;;5.30;99.90;;;;;;5121029;27;20147;-76
2024/03/10 07:29:02;;;;;;;3.80;2.60;;;5.30;99.90;;;;;;5121883;27;20024;-75
2024/03/10 07:31:28;;;;;;;3.87;2.80;;;5.40;99.90;;;;;;5115527;27;20066;-76
2024/03/10 07:33:54;;;;;;;7.37;5.03;;;5.40;99.90;;;;;;5114386;27;20048;-77
2024/03/10 07:36:21;;;;;;;4.40;2.50;;;5.50;99.90;;;;;;5113234;27;20027;-77
2024/03/10 07:38:46;;;;;;;4.97;2.30;;;5.60;99.90;;;;;;5106320;27;20015;-75
2024/03/10 07:41:12;;;;;;;5.27;3.10;;;5.60;99.90;;;;;;5114483;27;20471;-76
2024/03/10 07:43:37;;;;;;;3.93;2.50;;;5.70;99.90;;;;;;5112645;27;20027;-76
2024/03/10 07:46:07;;;;;;;4.37;2.60;;;5.80;99.90;;;;;;5113922;27;20542;-76
2024/03/10 07:48:32;;;;;;;4.63;2.23;;;5.90;99.90;;;;;;5116990;27;20492;-75
2024/03/10 07:50:58;;;;;;;5.10;2.30;;;6.00;99.90;;;;;;5114770;27;20107;-76
2024/03/10 07:53:24;;;;;;;5.43;2.60;;;6.20;99.90;;;;;;5112692;27;20062;-75
2024/03/10 07:55:49;;;;;;;3.33;1.93;;;6.30;99.90;;;;;;5121541;27;20506;-76
2024/03/10 07:58:15;;;;;;;3.43;2.20;;;6.40;99.90;;;;;;5132549;27;20035;-75
2024/03/10 08:00:42;;;;;;;7.53;4.10;;;6.60;99.90;;;;;;5123914;27;20105;-75
2024/03/10 08:03:09;;;;;;;6.63;2.67;;;6.70;99.90;;;;;;5114214;27;20051;-76
2024/03/10 08:05:35;;;;;;;3.40;2.27;;;6.80;99.90;;;;;;5131378;27;20023;-75
2024/03/10 08:08:01;;;;;;;4.93;2.33;;;6.90;99.90;;;;;;5125525;27;20087;-76
2024/03/10 08:10:27;;;;;;;3.77;2.50;;;7.00;99.90;;;;;;5112517;27;20030;-76
2024/03/10 08:12:55;;;;;;;4.70;3.53;;;7.10;99.90;;;;;;5127884;27;20110;-76
2024/03/10 08:15:21;;;;;;;5.47;3.67;;;7.20;99.90;;;;;;5127979;27;20035;-76
2024/03/10 08:17:47;;;;;;;4.60;2.23;;;7.30;99.90;;;;;;5108785;27;20138;-76
2024/03/10 08:20:16;;;;;;;4.63;2.50;;;7.30;99.90;;;;;;5110938;27;20077;-79
2024/03/10 08:22:42;;;;;;;5.80;3.37;;;7.40;99.90;;;;;;5121388;27;20023;-79
2024/03/10 08:25:09;;;;;;;6.40;3.90;;;7.40;99.90;;;;;;5133576;27;20031;-79
2024/03/10 08:27:35;;;;;;;7.27;6.10;;;7.40;99.90;;;;;;5122720;27;20398;-79
2024/03/10 08:30:03;;;;;;;6.03;4.27;;;7.40;99.90;;;;;;5119763;27;20023;-79
2024/03/10 08:32:29;;;;;;;4.10;2.70;;;7.40;99.90;;;;;;5121188;27;20023;-77
2024/03/10 08:34:55;;;;;;;3.93;2.83;;;7.50;99.90;;;;;;5129971;27;20513;-77
2024/03/10 08:37:22;;;;;;;3.37;2.30;;;7.60;99.90;;;;;;5132329;27;20022;-76
2024/03/10 08:39:50;;;;;;;5.33;2.27;;;7.60;99.90;;;;;;5128011;27;20613;-76
2024/03/10 08:42:16;;;;;;;3.40;2.50;;;7.70;99.90;;;;;;5122834;27;20023;-77
2024/03/10 08:44:42;;;;;;;3.63;2.70;;;7.80;99.90;;;;;;5131966;27;20029;-77
2024/03/10 08:47:08;;;;;;;3.27;2.43;;;7.90;99.90;;;;;;5132252;27;20034;-76
2024/03/10 08:49:33;;;;;;;4.03;2.40;;;8.00;99.90;;;;;;5126319;27;20102;-77
2024/03/10 08:52:01;;;;;;;3.93;2.27;;;8.10;99.90;;;;;;5119827;27;20088;-77
2024/03/10 08:54:29;;;;;;;3.80;2.37;;;8.20;99.90;;;;;;5108607;27;20058;-78
2024/03/10 08:56:55;;;;;;;4.60;2.67;;;8.20;99.90;;;;;;5113978;27;20365;-77
2024/03/10 08:59:21;;;;;;;5.47;2.60;;;8.30;99.90;;;;;;5118688;27;20023;-76
2024/03/10 09:01:46;;;;;;;8.77;4.97;;;8.20;99.90;;;;;;5119092;27;20383;-77
2024/03/10 09:04:12;;;;;;;20.40;10.07;;;8.30;99.90;;;;;;5114718;27;20023;-76
2024/03/10 09:06:37;;;;;;;6.10;3.47;;;8.40;99.90;;;;;;5117175;27;20031;-78
2024/03/10 09:09:06;;;;;;;9.50;3.00;;;8.50;99.90;;;;;;5114606;28;20411;-77
2024/03/10 09:11:31;;;;;;;4.40;2.83;;;8.70;99.90;;;;;;5114322;28;20031;-76
2024/03/10 09:14:00;;;;;;;2.93;2.10;;;8.80;99.90;;;;;;5123071;27;20023;-77
2024/03/10 09:16:26;;;;;;;4.53;2.60;;;8.80;99.90;;;;;;5116725;28;20034;-77
2024/03/10 09:18:52;;;;;;;3.67;2.20;;;8.90;99.90;;;;;;5115643;28;20027;-76
2024/03/10 09:21:18;;;;;;;4.03;2.00;;;9.10;99.90;;;;;;5117761;28;20015;-78
2024/03/10 09:23:44;;;;;;;5.10;2.27;;;9.20;99.90;;;;;;5126178;27;20042;-77
2024/03/10 09:26:11;;;;;;;6.37;3.03;;;9.30;99.90;;;;;;5124901;27;20027;-77
2024/03/10 09:28:37;;;;;;;5.10;2.73;;;9.40;99.90;;;;;;5120329;27;20019;-77
2024/03/10 09:31:03;;;;;;;4.43;2.60;;;9.40;99.90;;;;;;5119689;27;20382;-77
2024/03/10 09:33:29;;;;;;;3.00;2.23;;;9.40;99.90;;;;;;5119666;27;20032;-76
2024/03/10 09:35:58;;;;;;;11.17;2.43;;;9.40;99.90;;;;;;5120744;27;20106;-77
2024/03/10 09:38:24;;;;;;;4.77;2.07;;;9.40;99.90;;;;;;5114994;27;20401;-77
2024/03/10 09:40:49;;;;;;;5.20;2.20;;;9.50;99.90;;;;;;5116955;27;20059;-78
2024/03/10 09:43:16;;;;;;;4.17;2.23;;;9.50;99.90;;;;;;5124599;27;20098;-77
2024/03/10 09:45:48;;;;;;;5.03;2.37;;;9.60;99.90;;;;;;5124368;27;20027;-77
2024/03/10 09:48:14;;;;;;;5.17;2.77;;;9.60;99.90;;;;;;5122714;27;20320;-77
2024/03/10 09:50:42;;;;;;;3.20;2.23;;;9.60;99.90;;;;;;5118152;27;20073;-77
2024/03/10 09:53:08;;;;;;;4.00;2.37;;;9.70;99.90;;;;;;5122576;27;20028;-77
2024/03/10 09:55:34;;;;;;;5.23;2.40;;;9.70;99.90;;;;;;5123609;27;20019;-77
2024/03/10 09:58:10;;;;;;;4.07;2.50;;;9.70;99.90;;;;;;5127200;27;20132;-77
2024/03/10 10:00:38;;;;;;;6.43;3.23;;;9.70;99.90;;;;;;5112722;27;20499;-77
2024/03/10 10:03:07;;;;;;;4.97;2.80;;;9.70;99.90;;;;;;5112028;27;20023;-78
2024/03/10 10:05:39;;;;;;;5.30;2.97;;;9.70;99.90;;;;;;5115287;28;20114;-77
2024/03/10 10:08:10;;;;;;;7.37;3.10;;;9.80;99.90;;;;;;5097656;28;20056;-78
2024/03/10 10:10:36;;;;;;;5.37;2.57;;;9.80;99.90;;;;;;5115770;28;20016;-78
2024/03/10 10:13:03;;;;;;;6.13;2.97;;;9.80;99.90;;;;;;5116212;28;20031;-77
2024/03/10 10:15:33;;;;;;;5.40;2.50;;;9.90;99.90;;;;;;5114701;28;20062;-77
2024/03/10 10:18:02;;;;;;;4.63;2.90;;;10.00;99.90;;;;;;5115192;28;20054;-77
2024/03/10 10:20:28;;;;;;;3.00;2.13;;;10.10;99.90;;;;;;5123826;27;20355;-77
2024/03/10 10:23:04;;;;;;;5.37;2.43;;;10.10;99.90;;;;;;5135669;27;20024;-77
2024/03/10 10:25:31;;;;;;;3.37;2.20;;;10.20;99.90;;;;;;5135196;27;20046;-77
2024/03/10 10:27:57;;;;;;;4.87;2.50;;;10.30;99.90;;;;;;5135270;27;20623;-78
2024/03/10 10:30:28;;;;;;;4.47;2.10;;;10.30;99.90;;;;;;5135410;27;20031;-76
2024/03/10 10:33:11;;;;;;;4.50;3.00;;;10.40;99.90;;;;;;5135207;27;20023;-78
2024/03/10 10:35:42;;;;;;;3.83;2.57;;;10.40;99.90;;;;;;5134825;27;20107;-77
2024/03/10 10:38:12;;;;;;;3.73;2.70;;;10.50;99.90;;;;;;5135597;27;20102;-77
2024/03/10 10:40:40;;;;;;;3.70;2.17;;;10.60;99.90;;;;;;5121912;27;20032;-77
2024/03/10 10:43:06;;;;;;;3.83;2.30;;;10.70;99.90;;;;;;5118800;27;20023;-77
2024/03/10 10:45:35;;;;;;;3.67;2.07;;;10.80;99.90;;;;;;5133362;27;20475;-77
2024/03/10 10:48:01;;;;;;;4.13;2.40;;;11.00;99.90;;;;;;5135120;27;20031;-77
2024/03/10 10:50:37;;;;;;;3.72;2.20;;;11.10;99.90;;;;;;5135132;27;20392;-77
2024/03/10 10:53:06;;;;;;;6.10;2.28;;;11.30;99.90;;;;;;5135130;27;20023;-77
2024/03/10 10:55:32;;;;;;;3.85;2.03;;;11.40;99.90;;;;;;5134666;27;20023;-77
2024/03/10 10:57:59;;;;;;;7.10;2.17;;;11.70;99.90;;;;;;5134711;27;20051;-77
2024/03/10 11:00:28;;;;;;;4.78;2.20;;;11.80;99.90;;;;;;5134957;27;20057;-77
2024/03/10 11:03:17;;;;;;;3.35;2.03;;;11.90;99.90;;;;;;5135410;27;20514;-77
2024/03/10 11:06:03;;;;;;;3.20;2.00;;;12.00;99.90;;;;;;5134687;27;20070;-77
2024/03/10 11:08:36;;;;;;;5.95;3.45;;;12.20;99.90;;;;;;5118018;27;20028;-77
2024/03/10 11:11:03;;;;;;;18.23;10.15;;;12.40;99.90;;;;;;5129266;27;20103;-77
2024/03/10 11:13:29;;;;;;;12.10;2.67;;;12.50;99.90;;;;;;5115504;28;20393;-77
2024/03/10 11:16:14;;;;;;;5.97;2.70;;;12.80;99.90;;;;;;5114293;28;20114;-77
2024/03/10 11:18:43;;;;;;;6.10;2.65;;;12.90;99.90;;;;;;5115448;28;20038;-77
2024/03/10 11:21:17;;;;;;;4.55;2.70;;;13.10;99.90;;;;;;5115408;28;20024;-77
2024/03/10 11:23:47;;;;;;;3.70;2.60;;;13.20;99.90;;;;;;5115360;28;20076;-77
2024/03/10 11:26:20;;;;;;;4.40;2.67;;;13.30;99.90;;;;;;5114472;28;20024;-77
2024/03/10 11:28:50;;;;;;;5.53;2.25;;;13.20;99.90;;;;;;5115274;28;20024;-77
2024/03/10 11:31:22;;;;;;;5.32;2.40;;;13.20;99.90;;;;;;5118753;27;20372;-77
2024/03/10 11:33:51;;;;;;;3.90;2.60;;;13.30;99.90;;;;;;5117329;27;20031;-78
2024/03/10 11:36:17;;;;;;;4.05;2.03;;;13.50;99.90;;;;;;5121515;27;20028;-77
2024/03/10 11:38:44;;;;;;;9.18;2.60;;;13.70;99.90;;;;;;5115668;27;20028;-77
2024/03/10 11:41:10;;;;;;;6.53;2.78;;;13.80;99.90;;;;;;5109324;28;20025;-77
2024/03/10 11:43:41;;;;;;;3.90;2.42;;;13.90;99.90;;;;;;5094767;28;20025;-78
2024/03/10 11:46:22;;;;;;;4.50;2.13;;;14.00;99.90;;;;;;5108563;27;20387;-78
2024/03/10 11:48:48;;;;;;;4.45;2.20;;;14.10;99.90;;;;;;5109836;28;20040;-77
2024/03/10 11:51:15;;;;;;;3.55;1.98;;;14.40;99.90;;;;;;5115382;28;20510;-78
2024/03/10 11:53:41;;;;;;;3.92;1.77;;;14.40;99.90;;;;;;5119019;27;20042;-78
2024/03/10 11:56:07;;;;;;;3.57;2.13;;;14.60;99.90;;;;;;5120535;27;20027;-78
2024/03/10 11:58:33;;;;;;;3.10;1.80;;;14.80;99.90;;;;;;5119183;27;20099;-78
2024/03/10 12:01:05;;;;;;;5.55;3.30;;;15.00;99.90;;;;;;5112522;27;20424;-77
2024/03/10 12:03:35;;;;;;;6.85;3.00;;;15.30;99.90;;;;;;5115455;28;20102;-79
2024/03/10 12:06:05;;;;;;;4.00;1.70;;;15.60;99.90;;;;;;5113016;27;20019;-77
2024/03/10 12:08:42;;;;;;;5.50;1.60;;;15.90;99.90;;;;;;5115555;28;19912;-78
2024/03/10 12:11:08;;;;;;;;;;;16.00;99.90;;;;;;5114865;27;20038;-78
2024/03/10 12:13:38;;;;;;;;;;;16.00;99.90;;;;;;5119494;27;20053;-78
2024/03/10 12:16:07;;;;;;;;;;;16.00;99.90;;;;;;5119689;27;20046;-79
2024/03/10 12:18:36;;;;;;;;;;;15.90;99.90;;;;;;5118174;27;20038;-77
2024/03/10 12:21:03;;;;;;;;;;;16.00;99.90;;;;;;5120407;27;20027;-79
2024/03/10 12:23:32;;;;;;;;;;;16.20;99.90;;;;;;5116159;28;20042;-78
2024/03/10 12:26:03;;;;;;;;;;;16.30;99.90;;;;;;5116382;27;20422;-79
2024/03/10 12:28:28;;;;;;;;;;;16.40;99.90;;;;;;5115088;27;20124;-78
2024/03/10 12:30:58;;;;;;;;;;;16.60;99.90;;;;;;5110836;27;20042;-79
2024/03/10 12:33:23;;;;;;;;;;;16.70;99.90;;;;;;5102246;27;20448;-79
2024/03/10 12:35:49;;;;;;;;;;;16.90;99.90;;;;;;5103385;27;20130;-78
2024/03/10 12:38:15;;;;;;;;;;;16.90;99.90;;;;;;5103009;28;20045;-78
2024/03/10 12:40:41;;;;;;;;;;;17.10;99.90;;;;;;5099195;27;20579;-78
2024/03/10 12:43:06;;;;;;;;;;;17.10;99.90;;;;;;5098441;28;20019;-78
2024/03/10 12:45:33;;;;;;;;;;;17.20;99.90;;;;;;5096148;28;19919;-77
2024/03/10 12:47:58;;;;;;;;;;;17.20;99.90;;;;;;5115164;27;20045;-77
2024/03/10 12:50:24;;;;;;;;;;;17.30;99.90;;;;;;5113731;27;20606;-78
2024/03/10 12:52:50;;;;;;;;;;;17.40;99.90;;;;;;5120167;27;20030;-78
2024/03/10 12:55:18;;;;;;;;;;;17.50;99.90;;;;;;5119212;27;19981;-78
2024/03/10 12:57:44;;;;;;;;;;;17.60;99.60;;;;;;5116042;27;20072;-79
2024/03/10 13:00:22;;;;;;;;;;;17.70;99.90;;;;;;5114756;28;20429;-79
2024/03/10 13:02:51;;;;;;;;;;;17.70;99.90;;;;;;5113721;27;20018;-78
2024/03/10 13:05:17;;;;;;;;;;;17.90;99.50;;;;;;5114657;28;20050;-77
2024/03/10 13:07:42;;;;;;;;;;;17.90;98.40;;;;;;5113330;28;20027;-77
2024/03/10 13:10:10;;;;;;;;;;;18.00;98.30;;;;;;5118153;27;20038;-77
2024/03/10 13:12:39;;;;;;;;;;;18.20;98.00;;;;;;5115830;28;20012;-77
2024/03/10 13:15:05;;;;;;;;;;;18.30;97.90;;;;;;5113576;28;20049;-78
2024/03/10 13:17:33;;;;;;;;;;;18.50;97.80;;;;;;5123964;28;19960;-77
2024/03/10 13:20:00;;;;;;;;;;;18.70;97.40;;;;;;5118784;27;19946;-76
2024/03/10 13:22:26;;;;;;;;;;;18.90;95.90;;;;;;5122967;28;19957;-77